Plymouth, Washington
Current Conditions -  °F | °C
As of 5:53 PM on Friday 24 Oct 2014 (Local Time) from KHRI Reporting Station
Overcast Overcast  
Wind Chill: 53°   Ceiling: 7000
Heat Index: 53°   Visibility: 10mi
Dew Point: 49°   Wind: 3mph
Humidity: 86%   Direction: 10°N
Pressure: 29.95"   Gusts: NA
Location:  45.93°N, 119.35°W
Report Text: KHRI 250053Z AUTO 01003KT 10SM OVC070 12/09 A2995 RMK AO2 RAE35 SLP140 P0001 T01170094
Loading
Personal Weather Stations






























Interactive Weather Map
Tropical Storm Tracking
New forecast layout! Learn more

10-Day Weather Forecast

Advertisements
Track Severe Weather on mobile